Time;durP1;ratioP1;P1;durP2;ratioP2;P2;SDS_P1;SDS_P2;PMS_P1;PMS_P2;Temp;Humidity;BMP_temperature;BMP_pressure;BME280_temperature;BME280_humidity;BME280_pressure;Samples;Min_cycle;Max_cycle;Signal;HPM_P1;HPM_P2
2022/04/21 00:00:38;;;;;;;6.55;4.40;;;;;;;-0.04;100.00;92383.69;2114770;28;20019;-79
2022/04/21 00:01:39;;;;;;;7.32;4.68;;;;;;;-0.13;100.00;92385.88;2105592;28;20024;-79
2022/04/21 00:02:41;;;;;;;6.53;5.07;;;;;;;-0.16;100.00;92383.22;2114607;28;20011;-80
2022/04/21 00:03:42;;;;;;;7.80;5.00;;;;;;;-0.06;100.00;92383.28;2106319;28;20135;-78
2022/04/21 00:04:43;;;;;;;8.07;4.72;;;;;;;-0.17;100.00;92385.09;2097980;28;20043;-81
2022/04/21 00:05:44;;;;;;;7.47;4.95;;;;;;;-0.28;100.00;92384.25;2105061;28;20781;-81
2022/04/21 00:06:45;;;;;;;6.55;4.68;;;;;;;-0.24;100.00;92389.53;2105396;27;20715;-78
2022/04/21 00:07:48;;;;;;;7.43;4.75;;;;;;;-0.29;100.00;92388.78;2105144;28;20035;-78
2022/04/21 00:08:49;;;;;;;7.75;4.95;;;;;;;-0.08;100.00;92382.91;2104537;28;20447;-80
2022/04/21 00:09:50;;;;;;;6.65;5.07;;;;;;;-0.39;100.00;92383.47;2098177;28;20024;-78
2022/04/21 00:10:51;;;;;;;10.23;4.97;;;;;;;-0.27;100.00;92381.25;2104357;28;20012;-79
2022/04/21 00:11:52;;;;;;;9.23;4.97;;;;;;;-0.11;100.00;92375.75;2096111;28;20370;-79
2022/04/21 00:12:54;;;;;;;7.28;5.25;;;;;;;-0.19;100.00;92376.81;2106155;28;20518;-80
2022/04/21 00:13:55;;;;;;;10.40;4.78;;;;;;;-0.20;100.00;92377.19;2105523;28;20028;-80
2022/04/21 00:14:57;;;;;;;8.57;5.10;;;;;;;-0.21;100.00;92375.69;2106480;28;20024;-79
2022/04/21 00:15:58;;;;;;;5.65;4.55;;;;;;;-0.24;100.00;92379.78;2106321;28;20020;-79
2022/04/21 00:16:59;;;;;;;6.40;4.43;;;;;;;-0.33;100.00;92382.00;2112662;28;20020;-80
2022/04/21 00:18:00;;;;;;;7.93;4.75;;;;;;;-0.23;100.00;92381.28;2105333;28;20027;-81
2022/04/21 00:19:01;;;;;;;7.65;5.20;;;;;;;-0.27;100.00;92383.88;2101956;28;20078;-79
2022/04/21 00:20:02;;;;;;;9.15;4.82;;;;;;;-0.35;100.00;92385.00;2105797;28;20028;-79
2022/04/21 00:21:04;;;;;;;6.38;5.15;;;;;;;-0.37;100.00;92391.72;2109288;28;20455;-80
2022/04/21 00:23:28;;;;;;;6.75;4.63;;;;;;;-0.29;100.00;92383.50;2117371;27;20018;-79
2022/04/21 00:24:29;;;;;;;5.68;4.93;;;;;;;-0.31;100.00;92380.50;2120538;27;20031;-79
2022/04/21 00:25:31;;;;;;;7.93;5.03;;;;;;;-0.22;100.00;92374.16;2113057;28;20464;-78
2022/04/21 00:26:31;;;;;;;5.53;4.18;;;;;;;-0.28;100.00;92365.88;2102030;28;20093;-79
2022/04/21 00:27:39;;;;;;;8.98;5.43;;;;;;;-0.22;100.00;92367.06;2105059;28;20028;-80
2022/04/21 00:28:40;;;;;;;8.15;4.78;;;;;;;-0.14;100.00;92371.22;2109342;28;20020;-79
2022/04/21 00:29:42;;;;;;;7.82;4.95;;;;;;;-0.09;100.00;92370.13;2110656;28;20020;-78
2022/04/21 00:30:43;;;;;;;6.05;4.45;;;;;;;-0.04;100.00;92367.91;2106119;28;20027;-80
2022/04/21 00:31:44;;;;;;;8.43;4.78;;;;;;;-0.10;100.00;92368.63;2106201;28;20388;-80
2022/04/21 00:32:46;;;;;;;6.88;5.00;;;;;;;-0.21;100.00;92365.19;2112362;27;20023;-81
2022/04/21 00:33:47;;;;;;;5.40;4.75;;;;;;;-0.21;100.00;92378.31;2104079;28;20032;-80
2022/04/21 00:34:49;;;;;;;5.88;4.95;;;;;;;-0.23;100.00;92377.91;2111579;28;20029;-79
2022/04/21 00:35:50;;;;;;;7.75;5.03;;;;;;;-0.33;100.00;92374.09;2106204;28;20024;-79
2022/04/21 00:36:50;;;;;;;5.20;4.30;;;;;;;-0.27;100.00;92370.75;2097872;28;20082;-78
2022/04/21 00:37:58;;;;;;;6.22;4.20;;;;;;;-0.40;100.00;92379.31;2105213;28;20020;-79
2022/04/21 00:38:58;;;;;;;4.88;4.30;;;;;;;-0.39;100.00;92378.22;2110006;28;20047;-80
2022/04/21 00:39:59;;;;;;;8.30;4.15;;;;;;;-0.36;100.00;92370.34;2106035;28;20016;-81
2022/04/21 00:41:00;;;;;;;5.40;4.72;;;;;;;-0.31;100.00;92369.22;2106109;28;20111;-79
2022/04/21 00:42:02;;;;;;;6.95;4.88;;;;;;;-0.31;100.00;92371.84;2122222;27;20015;-78
2022/04/21 00:43:03;;;;;;;5.35;4.63;;;;;;;-0.28;100.00;92376.38;2113852;28;20015;-80
2022/04/21 00:44:04;;;;;;;5.20;4.35;;;;;;;-0.27;100.00;92375.25;2109559;28;20023;-80
2022/04/21 00:45:06;;;;;;;6.13;4.65;;;;;;;-0.31;100.00;92370.00;2112359;28;20019;-79
2022/04/21 00:46:17;;;;;;;5.97;4.43;;;;;;;-0.31;100.00;92367.38;2102181;28;20103;-80
2022/04/21 00:47:19;;;;;;;8.43;4.20;;;;;;;-0.40;100.00;92372.19;2095713;28;20123;-79
2022/04/21 00:48:20;;;;;;;5.60;3.92;;;;;;;-0.61;100.00;92366.78;2104896;28;20016;-80
2022/04/21 00:49:21;;;;;;;4.45;4.05;;;;;;;-0.44;100.00;92362.78;2105649;28;20023;-78
2022/04/21 00:50:31;;;;;;;8.20;4.15;;;;;;;-0.45;100.00;92364.66;2103660;28;20023;-77
2022/04/21 00:51:32;;;;;;;5.65;4.22;;;;;;;-0.41;100.00;92365.44;2107083;28;20020;-82
2022/04/21 00:52:34;;;;;;;7.47;4.82;;;;;;;-0.53;100.00;92355.22;2097909;28;20024;-80
2022/04/21 00:53:37;;;;;;;4.68;4.20;;;;;;;-0.64;100.00;92357.75;2105879;28;20031;-78
2022/04/21 00:54:39;;;;;;;7.30;4.82;;;;;;;-0.63;100.00;92354.03;2104293;28;20016;-80
2022/04/21 00:55:41;;;;;;;5.05;4.45;;;;;;;-0.50;100.00;92351.88;2110576;28;20022;-80
2022/04/21 00:56:43;;;;;;;6.50;4.38;;;;;;;-0.61;100.00;92349.19;2113670;28;20015;-79
2022/04/21 00:57:46;;;;;;;5.75;4.50;;;;;;;-0.60;100.00;92349.94;2113280;28;20016;-79
2022/04/21 00:58:47;;;;;;;4.65;4.25;;;;;;;-0.72;100.00;92350.19;2107798;28;20527;-80
2022/04/21 00:59:48;;;;;;;5.38;3.88;;;;;;;-0.63;100.00;92350.66;2104114;28;20505;-79
2022/04/21 01:00:49;;;;;;;4.95;4.22;;;;;;;-0.70;100.00;92350.59;2097137;28;20043;-79
2022/04/21 01:03:12;;;;;;;4.78;4.30;;;;;;;-0.67;100.00;92355.84;2111182;27;20499;-80
2022/04/21 01:04:13;;;;;;;5.07;4.05;;;;;;;-0.75;100.00;92354.28;2114567;27;20032;-79
2022/04/21 01:05:26;;;;;;;4.78;4.30;;;;;;;-0.50;100.00;92357.13;2105597;28;20111;-80
2022/04/21 01:06:27;;;;;;;4.82;4.15;;;;;;;-0.76;100.00;92355.41;2111071;28;20028;-79
2022/04/21 01:07:28;;;;;;;4.70;4.22;;;;;;;-0.70;100.00;92356.59;2105935;28;20020;-80
2022/04/21 01:08:29;;;;;;;4.53;4.03;;;;;;;-0.69;100.00;92354.72;2106048;28;20016;-81
2022/04/21 01:09:30;;;;;;;6.53;4.47;;;;;;;-0.59;100.00;92360.06;2094646;28;20016;-79
2022/04/21 01:10:34;;;;;;;5.10;3.95;;;;;;;-0.73;100.00;92359.94;2097320;28;20021;-79
2022/04/21 01:11:35;;;;;;;6.38;4.38;;;;;;;-0.64;100.00;92352.53;2106844;27;20020;-80
2022/04/21 01:12:38;;;;;;;5.30;4.40;;;;;;;-0.63;100.00;92346.16;2112921;28;20070;-79
2022/04/21 01:13:39;;;;;;;4.68;3.97;;;;;;;-0.78;100.00;92355.78;2101570;28;20387;-79
2022/04/21 01:14:40;;;;;;;6.78;4.45;;;;;;;-0.65;100.00;92342.41;2113925;27;20034;-78
2022/04/21 01:15:41;;;;;;;5.15;3.97;;;;;;;-0.52;100.00;92344.38;2122825;27;20049;-79
2022/04/21 01:16:42;;;;;;;4.75;4.00;;;;;;;-0.59;100.00;92344.31;2105673;28;20020;-79
2022/04/21 01:17:45;;;;;;;4.20;3.80;;;;;;;-0.53;100.00;92345.50;2106248;28;20026;-80
2022/04/21 01:18:46;;;;;;;5.07;4.57;;;;;;;-0.58;100.00;92343.19;2106170;28;20053;-80
2022/04/21 01:19:47;;;;;;;6.25;4.28;;;;;;;-0.66;100.00;92348.75;2105694;28;20422;-80
2022/04/21 01:20:48;;;;;;;5.30;4.20;;;;;;;-0.78;100.00;92342.66;2106019;28;20028;-81
2022/04/21 01:21:49;;;;;;;6.55;4.20;;;;;;;-0.76;100.00;92342.31;2105772;28;20023;-78
2022/04/21 01:22:51;;;;;;;4.65;4.25;;;;;;;-0.79;100.00;92335.16;2114014;28;20027;-78
2022/04/21 01:23:52;;;;;;;5.22;4.22;;;;;;;-0.72;100.00;92337.09;2114147;27;20026;-78
2022/04/21 01:24:53;;;;;;;5.15;4.05;;;;;;;-0.66;100.00;92336.41;2103453;28;20024;-80
2022/04/21 01:25:55;;;;;;;4.20;3.80;;;;;;;-0.83;100.00;92337.75;2104864;28;20046;-79
2022/04/21 01:26:57;;;;;;;5.95;4.03;;;;;;;-0.75;100.00;92328.06;2120086;27;20015;-80
2022/04/21 01:28:00;;;;;;;6.03;4.05;;;;;;;-0.77;100.00;92328.44;2111917;27;20541;-77
2022/04/21 01:29:03;;;;;;;8.55;4.07;;;;;;;-0.93;100.00;92327.91;2112613;28;20053;-80
2022/04/21 01:30:07;;;;;;;4.97;4.10;;;;;;;-0.88;100.00;92329.44;2113600;28;20400;-78
2022/04/21 01:31:08;;;;;;;5.45;4.10;;;;;;;-0.81;100.00;92326.91;2103261;28;20032;-78
2022/04/21 01:32:09;;;;;;;4.80;4.28;;;;;;;-0.94;100.00;92331.66;2101371;28;20055;-78
2022/04/21 01:33:10;;;;;;;4.43;3.88;;;;;;;-0.96;100.00;92326.03;2112087;27;20054;-80
2022/04/21 01:34:11;;;;;;;6.13;4.15;;;;;;;-0.95;100.00;92326.78;2104149;28;20472;-80
2022/04/21 01:35:12;;;;;;;4.80;4.00;;;;;;;-0.81;100.00;92326.91;2102109;28;20024;-79
2022/04/21 01:36:13;;;;;;;6.85;3.85;;;;;;;-0.92;100.00;92326.03;2114225;28;20039;-79
2022/04/21 01:41:12;;;;;;;4.68;4.15;;;;;;;-0.82;100.00;92326.16;2111090;27;20076;-80
2022/04/21 01:42:14;;;;;;;4.72;4.28;;;;;;;-0.79;100.00;92333.31;2120540;27;20084;-78
2022/04/21 01:43:16;;;;;;;7.85;4.00;;;;;;;-0.89;100.00;92328.69;2107632;28;20059;-80
2022/04/21 01:44:17;;;;;;;6.90;3.90;;;;;;;-0.91;100.00;92327.56;2097380;28;20032;-78
2022/04/21 01:45:18;;;;;;;5.60;4.35;;;;;;;-1.01;100.00;92321.09;2104359;28;20024;-80
2022/04/21 01:46:19;;;;;;;6.28;4.65;;;;;;;-0.83;100.00;92316.78;2113600;28;20016;-79
2022/04/21 01:47:20;;;;;;;6.07;4.35;;;;;;;-0.92;100.00;92321.59;2105538;28;20102;-80
2022/04/21 01:48:20;;;;;;;4.75;4.25;;;;;;;-1.04;100.00;92324.47;2111663;28;20087;-79
2022/04/21 01:49:21;;;;;;;4.22;3.83;;;;;;;-0.96;100.00;92322.66;2109242;28;20026;-80
2022/04/21 01:50:24;;;;;;;6.20;4.40;;;;;;;-0.93;100.00;92335.03;2111325;28;20032;-79
2022/04/21 01:51:25;;;;;;;4.38;3.97;;;;;;;-0.95;100.00;92324.16;2103384;28;20707;-78
2022/04/21 01:52:26;;;;;;;4.38;3.92;;;;;;;-1.00;100.00;92327.13;2102039;28;20512;-78
2022/04/21 01:53:28;;;;;;;4.32;3.92;;;;;;;-1.04;100.00;92322.59;2112394;28;20500;-78
2022/04/21 01:54:29;;;;;;;6.78;4.25;;;;;;;-0.94;100.00;92329.03;2114147;28;20034;-81
2022/04/21 01:55:30;;;;;;;5.07;4.45;;;;;;;-1.05;100.00;92328.22;2105099;28;20032;-78
2022/04/21 01:56:31;;;;;;;5.35;4.40;;;;;;;-1.00;100.00;92327.13;2103314;28;20066;-79
2022/04/21 01:57:33;;;;;;;7.93;4.47;;;;;;;-1.02;100.00;92325.59;2112717;28;20056;-78
2022/04/21 01:58:34;;;;;;;5.53;4.05;;;;;;;-1.01;100.00;92323.72;2105240;28;20396;-77
2022/04/21 01:59:35;;;;;;;5.60;4.57;;;;;;;-1.10;100.00;92329.31;2095417;28;20021;-78
2022/04/21 02:00:36;;;;;;;4.97;4.47;;;;;;;-0.84;100.00;92323.13;2096735;28;20416;-78
2022/04/21 02:01:37;;;;;;;5.05;3.92;;;;;;;-1.11;100.00;92329.63;2096665;28;20036;-80
2022/04/21 02:02:38;;;;;;;4.80;3.90;;;;;;;-1.11;100.00;92327.03;2111647;28;20019;-78
2022/04/21 02:03:39;;;;;;;6.03;4.28;;;;;;;-1.02;100.00;92322.97;2113856;28;20103;-79
2022/04/21 02:04:40;;;;;;;5.07;4.30;;;;;;;-1.06;100.00;92322.19;2103543;28;20036;-79
2022/04/21 02:05:41;;;;;;;6.18;4.55;;;;;;;-1.08;100.00;92321.81;2105553;28;20024;-79
2022/04/21 02:06:59;;;;;;;4.85;4.45;;;;;;;-1.05;100.00;92323.72;2111689;28;20027;-79
2022/04/21 02:08:03;;;;;;;4.82;4.32;;;;;;;-0.99;100.00;92318.88;2111841;28;20400;-78
2022/04/21 02:09:04;;;;;;;5.57;4.40;;;;;;;-0.89;100.00;92323.47;2098019;28;20028;-78
2022/04/21 02:10:05;;;;;;;5.25;4.18;;;;;;;-1.06;100.00;92316.19;2097196;28;20059;-79
2022/04/21 02:11:06;;;;;;;5.15;4.65;;;;;;;-1.03;100.00;92326.72;2097684;28;20037;-79
2022/04/21 02:12:08;;;;;;;5.28;4.32;;;;;;;-1.02;100.00;92322.97;2099015;28;20028;-78
2022/04/21 02:13:09;;;;;;;7.03;4.88;;;;;;;-0.93;100.00;92322.66;2091299;28;20511;-78
2022/04/21 02:14:10;;;;;;;5.05;4.25;;;;;;;-0.98;100.00;92324.88;2098783;28;20025;-79
2022/04/21 02:15:11;;;;;;;5.53;4.30;;;;;;;-1.11;100.00;92317.28;2100633;28;20016;-79
2022/04/21 02:16:13;;;;;;;5.25;4.63;;;;;;;-1.17;100.00;92318.00;2098459;28;20513;-81
2022/04/21 02:17:15;;;;;;;5.15;4.65;;;;;;;-1.12;100.00;92318.41;2113666;28;20019;-79
2022/04/21 02:18:17;;;;;;;5.07;4.57;;;;;;;-1.19;100.00;92312.34;2103455;28;20020;-81
2022/04/21 02:19:18;;;;;;;5.20;4.70;;;;;;;-1.13;100.00;92316.91;2105097;28;20787;-78
2022/04/21 02:20:19;;;;;;;4.78;4.35;;;;;;;-1.20;100.00;92306.34;2105457;28;20024;-79
2022/04/21 02:21:20;;;;;;;6.82;4.78;;;;;;;-1.22;100.00;92313.06;2113538;28;20016;-79
2022/04/21 02:22:22;;;;;;;4.70;4.30;;;;;;;-1.20;100.00;92308.22;2113817;28;20094;-78
2022/04/21 02:23:23;;;;;;;6.53;4.55;;;;;;;-1.11;100.00;92312.03;2113795;28;20019;-78
2022/04/21 02:24:24;;;;;;;5.43;4.88;;;;;;;-1.10;100.00;92308.31;2099230;28;20012;-78
2022/04/21 02:25:25;;;;;;;4.80;4.40;;;;;;;-0.74;100.00;92308.59;2096699;28;20013;-78
2022/04/21 02:26:26;;;;;;;5.88;4.57;;;;;;;-0.88;100.00;92309.25;2104819;28;20086;-78
2022/04/21 02:27:28;;;;;;;5.70;4.60;;;;;;;-0.96;100.00;92314.81;2105175;28;20411;-78
2022/04/21 02:28:29;;;;;;;6.32;4.10;;;;;;;-0.59;100.00;92299.69;2103407;28;20016;-78
2022/04/21 02:29:32;;;;;;;4.70;4.18;;;;;;;-0.78;100.00;92307.81;2113779;28;20472;-78
2022/04/21 02:30:33;;;;;;;5.15;4.65;;;;;;;-0.92;100.00;92302.44;2105504;28;20025;-78
2022/04/21 02:31:34;;;;;;;4.68;4.28;;;;;;;-1.03;100.00;92303.13;2105888;28;20028;-78
2022/04/21 02:32:35;;;;;;;5.43;4.43;;;;;;;-1.11;100.00;92304.16;2105478;28;20016;-79
2022/04/21 02:33:36;;;;;;;5.38;4.47;;;;;;;-1.14;100.00;92298.88;2105544;28;20464;-80
2022/04/21 02:34:37;;;;;;;5.32;4.57;;;;;;;-1.06;100.00;92308.31;2105287;28;20026;-77
2022/04/21 02:35:38;;;;;;;6.90;4.25;;;;;;;-1.15;100.00;92316.50;2103343;28;20020;-80
2022/04/21 02:36:39;;;;;;;4.70;4.20;;;;;;;-1.03;100.00;92303.13;2112058;28;20559;-77
2022/04/21 02:37:44;;;;;;;5.28;4.78;;;;;;;-1.17;100.00;92299.63;2110855;28;20024;-79
2022/04/21 02:38:44;;;;;;;5.45;4.78;;;;;;;-1.10;100.00;92297.06;2104593;28;20016;-78
2022/04/21 02:39:45;;;;;;;4.50;4.10;;;;;;;-1.16;100.00;92295.88;2105132;28;20085;-78
2022/04/21 02:40:46;;;;;;;5.05;4.55;;;;;;;-1.21;100.00;92294.34;2104968;28;20016;-78
2022/04/21 02:41:47;;;;;;;5.38;4.22;;;;;;;-1.07;100.00;92289.22;2096980;28;20027;-80
2022/04/21 02:42:48;;;;;;;7.50;4.88;;;;;;;-1.28;100.00;92287.16;2105365;28;20027;-80
2022/04/21 02:43:49;;;;;;;4.72;4.32;;;;;;;-1.29;100.00;92288.28;2122226;28;20018;-81
2022/04/21 02:44:50;;;;;;;5.75;5.15;;;;;;;-1.07;100.00;92281.34;2113775;28;20464;-79
2022/04/21 02:45:51;;;;;;;5.47;4.60;;;;;;;-1.21;100.00;92289.13;2094800;28;20025;-79
2022/04/21 02:46:52;;;;;;;5.63;4.50;;;;;;;-1.20;100.00;92292.47;2101368;28;20020;-80
2022/04/21 02:47:53;;;;;;;6.60;5.10;;;;;;;-1.21;100.00;92290.97;2103464;28;20012;-79
2022/04/21 02:48:56;;;;;;;7.63;5.10;;;;;;;-1.33;100.00;92300.59;2103630;28;20031;-79
2022/04/21 02:49:57;;;;;;;4.80;4.30;;;;;;;-1.24;100.00;92287.19;2113144;28;20050;-80
2022/04/21 02:50:58;;;;;;;7.60;4.80;;;;;;;-1.28;100.00;92295.03;2105414;28;20107;-80
2022/04/21 02:51:59;;;;;;;5.18;4.68;;;;;;;-1.35;100.00;92294.25;2097122;28;20019;-79
2022/04/21 02:53:00;;;;;;;5.20;4.65;;;;;;;-1.33;100.00;92287.50;2105257;28;20027;-78
2022/04/21 02:58:01;;;;;;;;;;;;;;;-1.20;100.00;92285.38;2122558;28;20024;-80
2022/04/21 02:59:02;;;;;;;5.22;4.18;;;;;;;-1.01;100.00;92273.91;2113605;28;19914;-80
2022/04/21 03:00:06;;;;;;;5.70;4.60;;;;;;;-1.21;100.00;92289.13;2094238;28;20021;-79
2022/04/21 03:01:07;;;;;;;4.78;4.30;;;;;;;-1.45;100.00;92293.00;2097392;28;20032;-78
2022/04/21 03:02:08;;;;;;;7.07;4.80;;;;;;;-1.25;100.00;92282.34;2102307;28;20080;-79
2022/04/21 03:03:08;;;;;;;4.82;4.32;;;;;;;-1.29;100.00;92280.41;2105336;28;20863;-78
2022/04/21 03:04:09;;;;;;;7.53;5.07;;;;;;;-1.34;100.00;92280.00;2113582;28;20023;-79
2022/04/21 03:05:11;;;;;;;4.80;4.35;;;;;;;-1.36;100.00;92296.09;2105165;28;20020;-80
2022/04/21 03:06:12;;;;;;;6.63;4.57;;;;;;;-1.36;100.00;92284.84;2097018;28;20060;-79
2022/04/21 03:07:14;;;;;;;5.97;5.00;;;;;;;-1.34;100.00;92287.88;2099753;28;20028;-79
2022/04/21 03:08:15;;;;;;;7.70;4.85;;;;;;;-1.35;100.00;92286.38;2110282;27;20020;-79
2022/04/21 03:09:16;;;;;;;6.63;4.65;;;;;;;-1.35;100.00;92284.50;2102875;28;20017;-79
2022/04/21 03:10:17;;;;;;;4.95;4.50;;;;;;;-1.43;100.00;92285.53;2095570;28;20432;-79
2022/04/21 03:11:18;;;;;;;6.55;4.57;;;;;;;-1.39;100.00;92273.22;2106199;28;20031;-80
2022/04/21 03:12:22;;;;;;;5.40;4.45;;;;;;;-1.46;100.00;92280.25;2107098;28;20488;-81
2022/04/21 03:13:23;;;;;;;6.05;4.45;;;;;;;-1.32;100.00;92280.38;2114586;28;20047;-80
2022/04/21 03:14:24;;;;;;;5.88;5.03;;;;;;;-1.39;100.00;92277.72;2112638;27;20066;-79
2022/04/21 03:15:25;;;;;;;7.70;4.97;;;;;;;-1.42;100.00;92273.94;2115116;28;20553;-78
2022/04/21 03:16:26;;;;;;;5.35;4.47;;;;;;;-1.32;100.00;92275.16;2098337;28;20020;-78
2022/04/21 03:17:29;;;;;;;6.32;4.60;;;;;;;-1.32;100.00;92277.75;2105249;28;20389;-79
2022/04/21 03:18:31;;;;;;;5.07;4.50;;;;;;;-1.35;100.00;92279.25;2115308;28;20464;-78
2022/04/21 03:19:33;;;;;;;5.35;4.55;;;;;;;-1.41;100.00;92279.94;2098728;28;20020;-80
2022/04/21 03:24:33;;;;;;;5.00;4.50;;;;;;;-1.38;100.00;92273.97;2123218;27;20111;-80
2022/04/21 03:25:34;;;;;;;6.43;4.50;;;;;;;-1.42;100.00;92275.81;2106377;28;20029;-79
2022/04/21 03:26:35;;;;;;;4.50;4.10;;;;;;;-1.43;100.00;92280.31;2106590;28;20016;-80
2022/04/21 03:27:36;;;;;;;4.45;4.05;;;;;;;-1.55;100.00;92273.44;2106944;28;20016;-80
2022/04/21 03:28:37;;;;;;;5.53;4.68;;;;;;;-1.58;100.00;92281.25;2107052;28;20019;-80
2022/04/21 03:29:39;;;;;;;4.80;4.38;;;;;;;-1.49;100.00;92276.50;2107121;28;20496;-80
2022/04/21 03:30:40;;;;;;;5.68;4.45;;;;;;;-1.56;100.00;92277.19;2106990;28;20023;-79
2022/04/21 03:31:43;;;;;;;5.70;4.55;;;;;;;-1.47;100.00;92276.16;2106620;28;20038;-79
2022/04/21 03:32:44;;;;;;;4.65;4.25;;;;;;;-1.49;100.00;92281.75;2107338;28;20438;-80
2022/04/21 03:33:46;;;;;;;4.88;4.40;;;;;;;-1.54;100.00;92282.84;2106856;28;20058;-79
2022/04/21 03:34:47;;;;;;;4.95;4.25;;;;;;;-1.44;100.00;92286.66;2097471;28;20068;-79
2022/04/21 03:35:48;;;;;;;7.05;4.68;;;;;;;-1.30;100.00;92286.03;2106167;28;20462;-80
2022/04/21 03:36:49;;;;;;;5.22;4.72;;;;;;;-1.49;100.00;92287.00;2100428;28;20020;-80
2022/04/21 03:37:50;;;;;;;6.07;4.50;;;;;;;-1.56;100.00;92279.06;2101454;28;20016;-80
2022/04/21 03:39:00;;;;;;;6.28;4.70;;;;;;;-1.29;100.00;92275.19;2113563;28;20019;-79
2022/04/21 03:40:01;;;;;;;6.18;4.88;;;;;;;-1.41;100.00;92274.69;2113300;28;20056;-79
2022/04/21 03:41:02;;;;;;;6.85;4.95;;;;;;;-1.55;100.00;92280.56;2106053;28;20471;-80
2022/04/21 03:42:07;;;;;;;13.18;4.55;;;;;;;-1.55;100.00;92283.19;2110462;28;20015;-80
2022/04/21 03:43:10;;;;;;;6.53;5.50;;;;;;;-1.61;100.00;92282.00;2108155;27;20024;-79
2022/04/21 03:44:17;;;;;;;5.03;4.32;;;;;;;-1.60;100.00;92279.00;2107158;28;20024;-79
2022/04/21 03:45:24;;;;;;;9.35;5.20;;;;;;;-1.66;100.00;92285.72;2099330;28;20369;-79
2022/04/21 03:46:32;;;;;;;6.50;5.13;;;;;;;-1.58;100.00;92281.25;2104729;27;20020;-79
2022/04/21 03:47:34;;;;;;;5.72;4.93;;;;;;;-1.58;100.00;92279.44;2110028;28;20110;-79
2022/04/21 03:48:35;;;;;;;8.27;5.28;;;;;;;-1.65;100.00;92281.97;2114451;28;20069;-79
2022/04/21 03:49:36;;;;;;;6.72;4.82;;;;;;;-1.77;100.00;92280.34;2122776;27;20050;-79
2022/04/21 03:50:38;;;;;;;5.68;4.85;;;;;;;-1.80;100.00;92280.28;2114954;28;20025;-79
2022/04/21 03:51:39;;;;;;;6.38;4.47;;;;;;;-1.72;100.00;92275.88;2096578;28;20103;-79
2022/04/21 03:52:40;;;;;;;8.05;4.70;;;;;;;-1.67;100.00;92270.31;2098371;28;20017;-79
2022/04/21 03:53:41;;;;;;;5.60;4.30;;;;;;;-1.60;100.00;92281.63;2098005;28;20596;-80
2022/04/21 03:54:42;;;;;;;7.10;4.38;;;;;;;-1.65;100.00;92270.72;2106756;28;20016;-79
2022/04/21 03:55:42;;;;;;;5.43;4.35;;;;;;;-1.71;100.00;92280.78;2106824;28;20557;-80
2022/04/21 03:56:43;;;;;;;5.80;4.88;;;;;;;-1.78;100.00;92262.38;2102662;28;20503;-80
2022/04/21 03:57:44;;;;;;;5.70;4.55;;;;;;;-1.77;100.00;92274.34;2107350;28;20019;-80
2022/04/21 03:58:45;;;;;;;4.90;4.47;;;;;;;-1.68;100.00;92266.97;2098031;28;20135;-80
2022/04/21 03:59:52;;;;;;;6.55;4.78;;;;;;;-1.57;100.00;92270.44;2099769;28;20368;-80
2022/04/21 04:00:53;;;;;;;6.22;4.28;;;;;;;-1.64;100.00;92272.97;2107136;28;20027;-80
2022/04/21 04:01:56;;;;;;;4.88;4.40;;;;;;;-1.73;100.00;92272.53;2105544;28;20020;-80
2022/04/21 04:02:58;;;;;;;5.18;4.68;;;;;;;-1.82;100.00;92272.81;2116021;27;20026;-80
2022/04/21 04:03:59;;;;;;;5.43;4.45;;;;;;;-1.63;100.00;92266.63;2106864;28;21689;-80
2022/04/21 04:05:02;;;;;;;5.40;4.57;;;;;;;-1.57;100.00;92272.31;2105524;28;20024;-79
2022/04/21 04:06:03;;;;;;;4.72;4.20;;;;;;;-1.61;100.00;92271.53;2106770;28;20023;-79
2022/04/21 04:11:04;;;;;;;5.43;4.45;;;;;;;-1.63;100.00;92274.50;2121497;27;20452;-79
2022/04/21 04:12:06;;;;;;;7.32;4.93;;;;;;;-1.69;100.00;92273.31;2105871;28;20028;-80
2022/04/21 04:13:07;;;;;;;7.47;5.00;;;;;;;-1.62;100.00;92273.41;2098436;28;20940;-80
2022/04/21 04:14:09;;;;;;;5.20;4.70;;;;;;;-1.68;100.00;92272.19;2097207;28;20095;-80
2022/04/21 04:15:10;;;;;;;5.80;4.82;;;;;;;-1.69;100.00;92277.81;2104033;28;20878;-80
2022/04/21 04:16:13;;;;;;;6.78;4.70;;;;;;;-1.60;100.00;92271.16;2106662;28;20028;-79
2022/04/21 04:17:14;;;;;;;5.28;4.78;;;;;;;-1.71;100.00;92275.56;2108029;28;20664;-80
2022/04/21 04:18:16;;;;;;;6.75;5.20;;;;;;;-1.49;100.00;92284.38;2105907;28;20035;-80
2022/04/21 04:19:17;;;;;;;6.35;4.65;;;;;;;-1.33;100.00;92279.63;2097512;28;20553;-80
2022/04/21 04:20:18;;;;;;;5.75;5.20;;;;;;;-1.50;100.00;92274.22;2099989;28;20103;-80
2022/04/21 04:21:19;;;;;;;5.15;4.65;;;;;;;-1.56;100.00;92271.94;2105791;28;20058;-80
2022/04/21 04:22:20;;;;;;;6.95;5.45;;;;;;;-1.65;100.00;92274.09;2113373;28;20031;-80
2022/04/21 04:23:22;;;;;;;8.68;5.13;;;;;;;-1.58;100.00;92276.81;2114314;27;20019;-80
2022/04/21 04:24:24;;;;;;;6.50;5.32;;;;;;;-1.64;100.00;92278.22;2115146;27;20015;-80
2022/04/21 04:25:25;;;;;;;6.63;5.00;;;;;;;-1.67;100.00;92273.69;2103789;28;20024;-79
2022/04/21 04:26:26;;;;;;;6.53;5.57;;;;;;;-1.71;100.00;92282.63;2097021;28;20020;-79
2022/04/21 04:27:28;;;;;;;8.20;6.32;;;;;;;-1.72;100.00;92284.50;2097889;28;20028;-79
2022/04/21 04:28:31;;;;;;;7.78;5.20;;;;;;;-1.77;100.00;92269.88;2101270;28;20027;-80
2022/04/21 04:29:32;;;;;;;7.13;5.40;;;;;;;-1.69;100.00;92272.56;2099359;28;20055;-79
2022/04/21 04:30:33;;;;;;;7.68;5.80;;;;;;;-1.73;100.00;92272.53;2102984;28;20013;-79
2022/04/21 04:31:48;;;;;;;6.80;5.60;;;;;;;-1.85;100.00;92273.50;2102690;28;20704;-79
2022/04/21 04:32:49;;;;;;;6.78;5.18;;;;;;;-1.71;100.00;92267.69;2115849;27;20020;-79
2022/04/21 04:33:50;;;;;;;6.95;5.47;;;;;;;-1.68;100.00;92282.66;2106125;28;20094;-79
2022/04/21 04:34:51;;;;;;;7.47;6.38;;;;;;;-1.83;100.00;92278.41;2106284;28;20042;-79
2022/04/21 04:35:52;;;;;;;9.98;5.57;;;;;;;-1.66;100.00;92277.09;2105736;28;20036;-81
2022/04/21 04:36:52;;;;;;;9.57;5.57;;;;;;;-1.66;100.00;92274.47;2112077;27;20023;-80
2022/04/21 04:37:53;;;;;;;6.72;5.18;;;;;;;-1.66;100.00;92283.09;2122108;27;20498;-79
2022/04/21 04:38:54;;;;;;;7.60;5.97;;;;;;;-1.75;100.00;92281.88;2106237;28;20672;-79
2022/04/21 04:39:55;;;;;;;7.55;5.50;;;;;;;-1.77;100.00;92276.97;2098094;28;20048;-79
2022/04/21 04:42:15;;;;;;;9.65;5.35;;;;;;;-1.74;100.00;92281.50;2098893;28;20051;-79
2022/04/21 04:42:17;;;;;;;5.60;5.03;;;;;;;-1.80;100.00;92280.28;2109008;27;20965;-79
2022/04/21 04:43:18;;;;;;;6.10;5.50;;;;;;;-1.72;100.00;92279.25;2106164;28;20499;-79
2022/04/21 04:44:19;;;;;;;6.40;5.80;;;;;;;-1.59;100.00;92285.00;2097549;28;20021;-79
2022/04/21 04:46:40;;;;;;;7.43;4.93;;;;;;;-1.59;100.00;92274.53;2112650;27;20090;-80
2022/04/21 04:47:42;;;;;;;9.18;6.00;;;;;;;-1.66;100.00;92280.47;2112666;28;20024;-79
2022/04/21 04:48:43;;;;;;;7.63;5.75;;;;;;;-1.59;100.00;92282.38;2095972;28;20036;-79
2022/04/21 04:49:43;;;;;;;7.47;5.68;;;;;;;-1.66;100.00;92280.47;2096545;28;20017;-79
2022/04/21 04:50:46;;;;;;;15.45;5.60;;;;;;;-1.52;100.00;92274.59;2105953;28;20016;-80
2022/04/21 04:51:47;;;;;;;7.65;5.38;;;;;;;-1.67;100.00;92278.94;2106301;28;20051;-80
2022/04/21 04:52:49;;;;;;;7.80;5.60;;;;;;;-1.71;100.00;92282.63;2097754;28;20024;-79
2022/04/21 04:53:51;;;;;;;10.02;6.00;;;;;;;-1.59;100.00;92266.66;2103965;28;20032;-80
2022/04/21 04:54:52;;;;;;;6.80;6.05;;;;;;;-1.45;100.00;92273.91;2097629;28;20024;-79
2022/04/21 04:55:53;;;;;;;7.70;5.40;;;;;;;-1.45;100.00;92276.53;2101735;28;20061;-79
2022/04/21 04:56:54;;;;;;;8.15;6.03;;;;;;;-1.49;100.00;92278.34;2101416;28;20023;-79
2022/04/21 04:57:55;;;;;;;8.07;5.88;;;;;;;-1.50;100.00;92269.75;2093081;28;20049;-80
2022/04/21 04:58:56;;;;;;;9.43;5.75;;;;;;;-1.45;100.00;92269.41;2109157;28;20019;-80
2022/04/21 04:59:57;;;;;;;6.38;5.78;;;;;;;-1.49;100.00;92270.50;2108580;28;20031;-80
2022/04/21 05:00:58;;;;;;;5.93;5.35;;;;;;;-1.54;100.00;92280.22;2104195;28;20653;-79
2022/04/21 05:02:01;;;;;;;6.25;5.65;;;;;;;-1.53;100.00;92281.72;2095739;28;20152;-79
2022/04/21 05:03:02;;;;;;;6.38;5.78;;;;;;;-1.54;100.00;92277.59;2093926;28;20031;-81
2022/04/21 05:04:05;;;;;;;7.43;5.60;;;;;;;-1.37;100.00;92267.63;2090593;28;20029;-80
2022/04/21 05:05:07;;;;;;;7.57;5.75;;;;;;;-1.43;100.00;92271.69;2104853;27;20018;-79
2022/04/21 05:06:08;;;;;;;5.97;5.38;;;;;;;-1.46;100.00;92278.41;2107325;28;20058;-79
2022/04/21 05:07:09;;;;;;;6.57;5.88;;;;;;;-1.45;100.00;92258.94;2096317;28;20032;-82